createdAt,value
2017-11-10T00:02:06.896Z,64.80
2017-11-10T00:04:39.334Z,64.80
2017-11-10T00:07:07.876Z,64.90
2017-11-10T00:09:36.725Z,65.50
2017-11-10T00:12:06.250Z,64.80
2017-11-10T00:14:35.714Z,66.10
2017-11-10T00:17:08.176Z,65.50
2017-11-10T00:19:37.176Z,65.50
2017-11-10T00:22:06.774Z,65.40
2017-11-10T00:24:39.705Z,66.60
2017-11-10T00:27:08.234Z,66.70
2017-11-10T00:29:41.816Z,67.00
2017-11-10T00:32:10.104Z,67.00
2017-11-10T00:34:41.936Z,67.20
2017-11-10T00:37:10.795Z,67.20
2017-11-10T00:39:43.425Z,67.10
2017-11-10T00:42:11.956Z,67.10
2017-11-10T00:44:41.605Z,67.30
2017-11-10T00:47:11.355Z,66.80
2017-11-10T00:49:41.175Z,66.80
2017-11-10T00:52:10.075Z,67.10
2017-11-10T00:54:42.764Z,67.00
2017-11-10T00:57:11.487Z,67.00
2017-11-10T00:59:40.956Z,66.70
2017-11-10T01:02:09.905Z,67.20
2017-11-10T01:04:39.925Z,67.20
2017-11-10T01:07:08.279Z,65.80
2017-11-10T01:09:39.705Z,65.30
2017-11-10T01:12:09.215Z,65.30
2017-11-10T01:14:39.365Z,65.00
2017-11-10T01:17:10.326Z,64.90
2017-11-10T01:19:43.445Z,64.90
2017-11-10T01:22:17.781Z,64.30
2017-11-10T01:24:46.746Z,64.00
2017-11-10T01:27:15.466Z,64.10
2017-11-10T01:29:44.885Z,64.00
2017-11-10T01:32:14.725Z,64.10
2017-11-10T01:34:46.874Z,64.10
2017-11-10T01:37:19.496Z,64.60
2017-11-10T01:39:48.125Z,63.90
2017-11-10T01:42:17.346Z,64.40
2017-11-10T01:44:48.035Z,64.40
2017-11-10T01:47:17.484Z,63.90
2017-11-10T01:50:01.076Z,63.90
2017-11-10T01:52:30.125Z,65.50
2017-11-10T01:54:58.665Z,64.80
2017-11-10T01:57:28.066Z,64.00
2017-11-10T01:59:59.924Z,64.60
2017-11-10T02:02:31.365Z,63.90
2017-11-10T02:05:04.336Z,63.60
2017-11-10T02:07:33.405Z,63.60
2017-11-10T02:10:05.326Z,64.00
2017-11-10T02:12:34.145Z,65.00
2017-11-10T02:15:06.705Z,65.00
2017-11-10T02:17:35.816Z,65.30
2017-11-10T02:20:05.825Z,65.10
2017-11-10T02:22:37.786Z,64.90
2017-11-10T02:25:11.576Z,65.00
2017-11-10T02:27:43.004Z,65.00
2017-11-10T02:30:16.896Z,65.10
2017-11-10T02:32:49.135Z,65.10
2017-11-10T02:35:21.467Z,65.30
2017-11-10T02:37:50.457Z,65.30
2017-11-10T02:40:21.996Z,65.30
2017-11-10T02:42:53.700Z,65.30
2017-11-10T02:45:24.476Z,65.20
2017-11-10T02:47:54.189Z,65.20
2017-11-10T02:50:23.035Z,65.20
2017-11-10T02:52:54.259Z,65.30
2017-11-10T02:55:22.816Z,65.40
2017-11-10T02:57:51.395Z,65.30
2017-11-10T03:00:24.435Z,65.30
2017-11-10T03:02:52.885Z,65.30
2017-11-10T03:05:25.426Z,65.40
2017-11-10T03:07:54.635Z,65.30
2017-11-10T03:10:24.256Z,65.30
2017-11-10T03:12:53.115Z,65.30
2017-11-10T03:15:22.495Z,65.50
2017-11-10T03:17:52.362Z,65.80
2017-11-10T03:20:21.432Z,66.00
2017-11-10T03:22:52.556Z,65.90
2017-11-10T03:25:22.845Z,64.50
2017-11-10T03:27:53.546Z,65.30
2017-11-10T03:30:26.381Z,65.50
2017-11-10T03:32:54.985Z,65.70
2017-11-10T03:35:23.536Z,65.70
2017-11-10T03:37:52.594Z,65.60
2017-11-10T03:40:21.405Z,65.70
2017-11-10T03:42:50.115Z,65.30
2017-11-10T03:45:25.805Z,65.80
2017-11-10T03:47:55.296Z,64.00
2017-11-10T03:50:26.165Z,63.40
2017-11-10T03:52:57.103Z,63.40
2017-11-10T03:55:27.947Z,63.10
2017-11-10T03:57:59.711Z,63.40
2017-11-10T04:00:28.486Z,64.00
2017-11-10T04:02:57.165Z,64.20
2017-11-10T04:05:30.106Z,64.50
2017-11-10T04:08:02.475Z,64.20
2017-11-10T04:10:33.235Z,64.70
2017-11-10T04:13:04.534Z,64.70
2017-11-10T04:15:37.105Z,64.80
2017-11-10T04:18:08.595Z,65.00
2017-11-10T04:20:38.106Z,66.60
2017-11-10T04:23:07.365Z,66.70
2017-11-10T04:25:37.715Z,66.60
2017-11-10T04:28:07.134Z,66.80
2017-11-10T04:30:38.806Z,66.70
2017-11-10T04:33:11.364Z,66.60
2017-11-10T04:35:43.516Z,66.60
2017-11-10T04:38:17.274Z,66.50
2017-11-10T04:40:49.445Z,66.40
2017-11-10T04:43:20.187Z,66.40
2017-11-10T04:45:50.600Z,66.00
2017-11-10T04:48:19.396Z,66.10
2017-11-10T04:50:48.155Z,66.00
2017-11-10T04:53:19.325Z,65.40
2017-11-10T04:55:53.674Z,64.80
2017-11-10T04:58:22.790Z,64.50
2017-11-10T05:00:52.535Z,64.80
2017-11-10T05:03:21.324Z,64.10
2017-11-10T05:05:57.334Z,64.20
2017-11-10T05:08:28.015Z,63.80
2017-11-10T05:10:56.745Z,63.80
2017-11-10T05:13:28.206Z,63.80
2017-11-10T05:15:59.285Z,64.00
2017-11-10T05:18:28.646Z,63.90
2017-11-10T05:20:59.109Z,63.70
2017-11-10T05:23:27.554Z,63.70
2017-11-10T05:25:57.179Z,63.40
2017-11-10T05:28:29.046Z,63.40
2017-11-10T05:31:00.635Z,63.30
2017-11-10T05:33:29.426Z,63.20
2017-11-10T05:36:02.145Z,63.50
2017-11-10T05:38:32.798Z,63.30
2017-11-10T05:41:01.775Z,63.30
2017-11-10T05:43:31.966Z,63.30
2017-11-10T05:46:01.684Z,63.40
2017-11-10T05:48:32.395Z,63.40
2017-11-10T05:51:03.804Z,63.60
2017-11-10T05:53:35.016Z,63.60
2017-11-10T05:56:05.855Z,63.60
2017-11-10T05:58:38.435Z,63.40
2017-11-10T06:01:09.905Z,63.30
2017-11-10T06:03:46.356Z,63.00
2017-11-10T06:06:22.646Z,62.70
2017-11-10T06:09:00.108Z,62.60
2017-11-10T06:11:29.626Z,62.40
2017-11-10T06:13:58.235Z,62.40
2017-11-10T06:16:27.987Z,62.20
2017-11-10T06:18:56.728Z,62.30
2017-11-10T06:21:25.315Z,62.20
2017-11-10T06:23:55.865Z,61.70
2017-11-10T06:26:24.786Z,61.50
2017-11-10T06:28:53.966Z,61.70
2017-11-10T06:31:22.521Z,61.60
2017-11-10T06:33:51.152Z,62.40
2017-11-10T06:36:20.482Z,61.80
2017-11-10T06:38:48.865Z,61.70
2017-11-10T06:41:17.541Z,62.30
2017-11-10T06:43:46.245Z,61.70
2017-11-10T06:46:14.876Z,62.10
2017-11-10T06:48:44.505Z,62.50
2017-11-10T06:51:13.357Z,62.50
2017-11-10T06:53:41.738Z,62.10
2017-11-10T06:56:09.910Z,61.60
2017-11-10T06:58:42.006Z,61.90
2017-11-10T07:01:10.766Z,61.30
2017-11-10T07:03:42.846Z,61.50
2017-11-10T07:06:12.062Z,61.30
2017-11-10T07:08:40.547Z,61.30
2017-11-10T07:11:09.133Z,61.00
2017-11-10T07:13:39.835Z,60.80
2017-11-10T07:16:11.475Z,60.80
2017-11-10T07:18:40.246Z,60.80
2017-11-10T07:21:12.644Z,60.40
2017-11-10T07:23:45.624Z,60.00
2017-11-10T07:26:17.309Z,60.70
2017-11-10T07:28:45.855Z,60.70
2017-11-10T07:31:15.234Z,60.70
2017-11-10T07:33:48.144Z,60.80
2017-11-10T07:36:20.095Z,60.70
2017-11-10T07:38:50.665Z,60.40
2017-11-10T07:41:23.524Z,60.00
2017-11-10T07:43:54.495Z,60.30
2017-11-10T07:46:27.216Z,60.30
2017-11-10T07:48:55.715Z,60.60
2017-11-10T07:51:26.086Z,60.60
2017-11-10T07:53:56.694Z,60.50
2017-11-10T07:56:25.386Z,61.10
2017-11-10T07:58:55.098Z,61.70
2017-11-10T08:01:25.056Z,61.70
2017-11-10T08:03:54.595Z,61.80
2017-11-10T08:06:23.774Z,61.80
2017-11-10T08:08:52.871Z,62.30
2017-11-10T08:11:21.703Z,62.50
2017-11-10T08:13:50.565Z,62.60
2017-11-10T08:16:20.475Z,62.70
2017-11-10T08:18:49.236Z,62.70
2017-11-10T08:21:18.155Z,63.00
2017-11-10T08:23:47.204Z,62.90
2017-11-10T08:26:15.907Z,62.90
2017-11-10T08:28:45.406Z,62.80
2017-11-10T08:31:14.546Z,63.00
2017-11-10T08:33:44.086Z,62.90
2017-11-10T08:36:12.836Z,62.90
2017-11-10T08:38:42.075Z,62.90
2017-11-10T08:41:10.576Z,62.90
2017-11-10T08:43:39.286Z,61.60
2017-11-10T08:46:09.034Z,61.40
2017-11-10T08:48:37.799Z,61.40
2017-11-10T08:51:07.035Z,61.10
2017-11-10T08:53:35.785Z,61.00
2017-11-10T08:56:04.387Z,61.00
2017-11-10T08:58:32.937Z,60.80
2017-11-10T09:01:02.266Z,59.70
2017-11-10T09:03:31.126Z,59.40
2017-11-10T09:05:59.714Z,59.30
2017-11-10T09:08:28.616Z,58.70
2017-11-10T09:11:00.246Z,58.70
2017-11-10T09:13:29.265Z,58.40
2017-11-10T09:15:58.135Z,58.00
2017-11-10T09:18:29.228Z,58.00
2017-11-10T09:20:58.294Z,58.00
2017-11-10T09:23:29.547Z,58.00
2017-11-10T09:25:58.815Z,58.10
2017-11-10T09:28:31.124Z,58.10
2017-11-10T09:31:04.358Z,58.00
2017-11-10T09:33:34.136Z,58.20
2017-11-10T09:36:20.424Z,57.60
2017-11-10T09:38:50.675Z,57.40
2017-11-10T09:41:24.726Z,57.40
2017-11-10T09:44:01.664Z,57.30
2017-11-10T09:46:35.715Z,57.20
2017-11-10T09:49:20.145Z,57.60
2017-11-10T09:51:54.315Z,57.60
2017-11-10T09:54:29.184Z,57.50
2017-11-10T09:56:59.225Z,57.50
2017-11-10T09:59:39.986Z,57.30
2017-11-10T10:02:13.247Z,57.20
2017-11-10T10:04:49.732Z,57.20
2017-11-10T10:07:21.634Z,58.60
2017-11-10T10:09:53.775Z,56.60
2017-11-10T10:12:28.965Z,55.80
2017-11-10T10:15:03.846Z,55.10
2017-11-10T10:17:49.275Z,54.80
2017-11-10T10:20:33.885Z,54.70
2017-11-10T10:23:03.695Z,55.00
2017-11-10T10:25:33.156Z,54.60
2017-11-10T10:28:02.236Z,54.60
2017-11-10T10:30:31.150Z,54.80
2017-11-10T10:33:00.205Z,54.90
2017-11-10T10:35:29.429Z,54.30
2017-11-10T10:37:59.956Z,53.90
2017-11-10T10:40:28.656Z,53.80
2017-11-10T10:42:58.995Z,53.70
2017-11-10T10:45:29.474Z,53.90
2017-11-10T10:47:58.666Z,53.90
2017-11-10T10:50:27.724Z,53.90
2017-11-10T10:56:12.535Z,53.60
2017-11-10T10:58:42.078Z,53.40
2017-11-10T11:01:11.176Z,53.40
2017-11-10T11:03:39.907Z,53.40
2017-11-10T11:06:09.585Z,53.30
2017-11-10T11:08:38.425Z,53.30
2017-11-10T11:11:07.186Z,53.30
2017-11-10T11:13:36.608Z,53.50
2017-11-10T11:16:06.545Z,53.50
2017-11-10T11:18:35.750Z,53.20
2017-11-10T11:21:05.354Z,53.00
2017-11-10T11:23:35.106Z,53.20
2017-11-10T11:26:05.195Z,53.60
2017-11-10T11:28:34.124Z,53.50
2017-11-10T11:31:03.946Z,52.70
2017-11-10T11:33:34.304Z,52.80
2017-11-10T11:36:03.067Z,52.80
2017-11-10T11:38:32.215Z,52.90
2017-11-10T11:41:06.463Z,52.90
2017-11-10T11:43:36.277Z,53.30
2017-11-10T11:46:05.885Z,53.30
2017-11-10T11:48:35.656Z,53.00
2017-11-10T11:51:06.440Z,52.90
2017-11-10T11:53:36.806Z,53.20
2017-11-10T11:56:05.346Z,52.90
2017-11-10T11:58:34.091Z,52.40
2017-11-10T12:01:03.136Z,51.70
2017-11-10T12:03:32.654Z,52.30
2017-11-10T12:06:00.864Z,52.30
2017-11-10T12:08:29.795Z,51.70
2017-11-10T12:10:58.866Z,51.30
2017-11-10T12:13:28.708Z,50.60
2017-11-10T12:15:57.980Z,50.60
2017-11-10T12:18:27.535Z,50.80
2017-11-10T12:21:03.375Z,50.80
2017-11-10T12:23:32.366Z,51.00
2017-11-10T12:26:01.015Z,51.00
2017-11-10T12:28:29.475Z,50.80
2017-11-10T12:30:59.384Z,50.60
2017-11-10T12:33:28.435Z,50.20
2017-11-10T12:35:57.573Z,50.10
2017-11-10T12:38:26.555Z,50.30
2017-11-10T12:40:55.546Z,50.10
2017-11-10T12:43:24.215Z,50.10
2017-11-10T12:45:53.566Z,49.40
2017-11-10T12:48:22.904Z,50.10
2017-11-10T12:50:51.697Z,50.10
2017-11-10T12:53:20.436Z,50.10
2017-11-10T12:55:50.045Z,50.50
2017-11-10T12:58:19.826Z,50.30
2017-11-10T13:00:48.976Z,50.30
2017-11-10T13:03:17.590Z,50.30
2017-11-10T13:05:46.246Z,50.20
2017-11-10T13:08:14.700Z,49.70
2017-11-10T13:10:43.426Z,49.70
2017-11-10T13:13:12.187Z,50.30
2017-11-10T13:15:42.250Z,50.30
2017-11-10T13:18:11.136Z,50.30
2017-11-10T13:20:40.087Z,50.00
2017-11-10T13:23:09.476Z,49.90
2017-11-10T13:25:40.505Z,49.80
2017-11-10T13:28:09.314Z,50.80
2017-11-10T13:30:38.536Z,51.00
2017-11-10T13:33:07.046Z,51.00
2017-11-10T13:35:35.326Z,51.50
2017-11-10T13:38:03.818Z,52.20
2017-11-10T13:40:32.717Z,52.30
2017-11-10T13:43:01.666Z,52.30
2017-11-10T13:45:30.907Z,53.80
2017-11-10T13:47:59.996Z,53.00
2017-11-10T13:50:29.465Z,55.20
2017-11-10T13:52:58.726Z,55.10
2017-11-10T13:55:28.616Z,54.60
2017-11-10T13:57:57.076Z,54.60
2017-11-10T14:00:26.477Z,55.10
2017-11-10T14:02:55.136Z,55.70
2017-11-10T14:05:24.426Z,57.10
2017-11-10T14:07:53.556Z,57.80
2017-11-10T14:10:22.477Z,57.00
2017-11-10T14:12:51.145Z,57.50
2017-11-10T14:15:19.955Z,57.90
2017-11-10T14:17:49.815Z,59.10
2017-11-10T14:20:18.206Z,59.10
2017-11-10T14:22:46.967Z,59.40
2017-11-10T14:25:15.324Z,59.10
2017-11-10T14:27:44.957Z,59.60
2017-11-10T14:30:13.586Z,59.60
2017-11-10T14:32:43.516Z,60.10
2017-11-10T14:35:13.235Z,61.10
2017-11-10T14:37:42.716Z,59.60
2017-11-10T14:40:13.396Z,59.40
2017-11-10T14:42:44.366Z,59.30
2017-11-10T14:45:13.416Z,60.00
2017-11-10T14:47:42.617Z,60.30
2017-11-10T14:50:12.197Z,60.60
2017-11-10T14:52:42.436Z,61.30
2017-11-10T14:55:11.109Z,61.20
2017-11-10T14:57:40.421Z,62.30
2017-11-10T15:00:10.717Z,62.30
2017-11-10T15:02:40.707Z,61.90
2017-11-10T15:05:09.727Z,61.90
2017-11-10T15:07:39.476Z,62.00
2017-11-10T15:10:08.942Z,62.00
2017-11-10T15:12:38.457Z,64.00
2017-11-10T15:15:07.526Z,63.90
2017-11-10T15:17:36.577Z,63.80
2017-11-10T15:20:07.234Z,64.20
2017-11-10T15:22:36.405Z,64.50
2017-11-10T15:25:05.826Z,63.80
2017-11-10T15:27:34.675Z,63.50
2017-11-10T15:30:03.795Z,64.60
2017-11-10T15:32:32.577Z,65.00
2017-11-10T15:35:02.208Z,63.60
2017-11-10T15:37:31.116Z,64.50
2017-11-10T15:40:02.206Z,65.40
2017-11-10T15:42:31.425Z,65.30
2017-11-10T15:45:00.497Z,65.60
2017-11-10T15:47:29.355Z,65.90
2017-11-10T15:49:58.176Z,66.70
2017-11-10T15:52:27.186Z,66.50
2017-11-10T15:54:56.005Z,65.60
2017-11-10T15:57:25.256Z,66.40
2017-11-10T15:59:57.236Z,67.10
2017-11-10T16:02:25.725Z,65.90
2017-11-10T16:04:54.626Z,65.60
2017-11-10T16:07:23.649Z,67.10
2017-11-10T16:09:53.365Z,66.50
2017-11-10T16:12:23.605Z,65.80
2017-11-10T16:14:53.976Z,65.80
2017-11-10T16:17:22.760Z,66.10
2017-11-10T16:19:55.676Z,66.80
2017-11-10T16:22:24.338Z,66.00
2017-11-10T16:24:53.226Z,66.30
2017-11-10T16:27:22.178Z,67.00
2017-11-10T16:29:51.066Z,66.70
2017-11-10T16:32:20.005Z,66.90
2017-11-10T16:34:48.716Z,66.50
2017-11-10T16:37:17.575Z,66.20
2017-11-10T16:39:46.276Z,66.30
2017-11-10T16:42:22.074Z,67.70
2017-11-10T16:44:50.940Z,68.70
2017-11-10T16:47:19.366Z,66.80
2017-11-10T16:49:48.025Z,65.80
2017-11-10T16:52:16.914Z,65.20
2017-11-10T16:54:45.875Z,64.70
2017-11-10T16:57:17.715Z,65.20
2017-11-10T16:59:47.335Z,65.40
2017-11-10T17:02:18.545Z,65.50
2017-11-10T17:04:47.184Z,66.20
2017-11-10T17:07:18.076Z,65.60
2017-11-10T17:09:47.006Z,64.50
2017-11-10T17:12:15.837Z,65.00
2017-11-10T17:14:44.680Z,66.00
2017-11-10T17:17:14.675Z,66.90
2017-11-10T17:19:43.646Z,66.90
2017-11-10T17:22:12.447Z,67.10
2017-11-10T17:24:43.945Z,67.20
2017-11-10T17:27:12.874Z,67.10
2017-11-10T17:29:41.556Z,67.60
2017-11-10T17:32:10.555Z,67.90
2017-11-10T17:34:39.476Z,69.00
2017-11-10T17:37:08.875Z,68.30
2017-11-10T17:39:38.257Z,67.90
2017-11-10T17:42:07.342Z,67.90
2017-11-10T17:44:36.276Z,68.50
2017-11-10T17:47:05.278Z,68.10
2017-11-10T17:49:34.715Z,68.80
2017-11-10T17:52:04.585Z,67.80
2017-11-10T17:54:34.679Z,68.70
2017-11-10T17:57:03.357Z,68.70
2017-11-10T17:59:32.184Z,68.10
2017-11-10T18:02:01.082Z,68.60
2017-11-10T18:04:29.725Z,67.70
2017-11-10T18:07:05.686Z,66.80
2017-11-10T18:09:35.906Z,66.80
2017-11-10T18:12:05.756Z,67.70
2017-11-10T18:14:38.777Z,67.70
2017-11-10T18:17:07.265Z,67.60
2017-11-10T18:19:37.736Z,66.60
2017-11-10T18:22:06.948Z,67.30
2017-11-10T18:24:35.986Z,67.30
2017-11-10T18:27:04.776Z,67.70
2017-11-10T18:29:34.684Z,67.40
2017-11-10T18:32:03.777Z,67.10
2017-11-10T18:34:33.215Z,67.40
2017-11-10T18:37:02.016Z,66.30
2017-11-10T18:39:31.526Z,66.40
2017-11-10T18:42:01.555Z,66.40
2017-11-10T18:44:30.611Z,67.60
2017-11-10T18:47:00.405Z,66.70
2017-11-10T18:49:29.316Z,66.60
2017-11-10T18:52:00.684Z,66.30
2017-11-10T18:54:29.704Z,66.30
2017-11-10T18:56:58.416Z,67.00
2017-11-10T18:59:27.366Z,67.00
2017-11-10T19:01:57.588Z,67.60
2017-11-10T19:04:27.110Z,67.80
2017-11-10T19:06:55.917Z,68.30
2017-11-10T19:09:25.145Z,67.90
2017-11-10T19:11:54.366Z,67.90
2017-11-10T19:14:23.200Z,67.80
2017-11-10T19:16:52.488Z,67.50
2017-11-10T19:19:21.473Z,68.00
2017-11-10T19:21:50.465Z,67.60
2017-11-10T19:24:19.274Z,67.50
2017-11-10T19:26:47.766Z,68.80
2017-11-10T19:29:18.026Z,68.40
2017-11-10T19:31:47.885Z,66.80
2017-11-10T19:34:17.017Z,67.20
2017-11-10T19:36:46.718Z,68.00
2017-11-10T19:39:18.277Z,67.10
2017-11-10T19:41:47.904Z,66.80
2017-11-10T19:44:16.978Z,66.70
2017-11-10T19:46:46.906Z,66.90
2017-11-10T19:49:16.706Z,67.20
2017-11-10T19:51:46.555Z,67.70
2017-11-10T19:54:15.406Z,67.70
2017-11-10T19:56:45.795Z,68.00
2017-11-10T19:59:14.465Z,68.10
2017-11-10T20:01:51.696Z,67.60
2017-11-10T20:04:21.247Z,67.00
2017-11-10T20:06:49.894Z,67.00
2017-11-10T20:09:19.419Z,67.30
2017-11-10T20:11:51.965Z,67.20
2017-11-10T20:14:21.686Z,67.40
2017-11-10T20:16:51.155Z,67.40
2017-11-10T20:19:19.786Z,67.50
2017-11-10T20:21:48.695Z,68.00
2017-11-10T20:24:18.566Z,67.80
2017-11-10T20:26:48.895Z,68.50
2017-11-10T20:29:23.337Z,68.30
2017-11-10T20:31:52.575Z,68.30
2017-11-10T20:34:21.900Z,68.30
2017-11-10T20:36:53.885Z,68.20
2017-11-10T20:39:23.945Z,68.30
2017-11-10T20:41:55.876Z,68.20
2017-11-10T20:44:24.886Z,68.60
2017-11-10T20:46:53.906Z,68.90
2017-11-10T20:49:22.605Z,68.60
2017-11-10T20:51:56.516Z,69.10
2017-11-10T20:54:26.175Z,69.00
2017-11-10T20:57:00.395Z,68.90
2017-11-10T20:59:29.255Z,69.20
2017-11-10T21:01:58.474Z,69.40
2017-11-10T21:04:27.035Z,69.30
2017-11-10T21:06:57.136Z,69.70
2017-11-10T21:09:26.894Z,69.60
2017-11-10T21:11:55.600Z,70.20
2017-11-10T21:14:24.374Z,70.10
2017-11-10T21:16:54.414Z,70.30
2017-11-10T21:19:24.336Z,70.80
2017-11-10T21:21:58.785Z,70.60
2017-11-10T21:24:27.497Z,70.90
2017-11-10T21:26:57.434Z,70.10
2017-11-10T21:29:26.225Z,69.50
2017-11-10T21:31:55.206Z,69.20
2017-11-10T21:34:25.955Z,70.20
2017-11-10T21:36:54.674Z,70.40
2017-11-10T21:39:33.085Z,70.00
2017-11-10T21:42:03.185Z,70.00
2017-11-10T21:44:32.094Z,70.40
2017-11-10T21:47:01.846Z,70.10
2017-11-10T21:49:30.744Z,70.10
2017-11-10T21:51:59.484Z,70.10
2017-11-10T21:54:31.077Z,70.70
2017-11-10T21:57:00.075Z,70.00
2017-11-10T21:59:29.065Z,70.00
2017-11-10T22:02:02.355Z,70.20
2017-11-10T22:04:31.236Z,70.20
2017-11-10T22:07:02.886Z,70.10
2017-11-10T22:09:33.150Z,69.80
2017-11-10T22:12:01.924Z,69.10
2017-11-10T22:14:30.355Z,69.20
2017-11-10T22:17:00.615Z,68.40
2017-11-10T22:19:29.436Z,68.30
2017-11-10T22:21:58.655Z,69.00
2017-11-10T22:24:28.215Z,68.30
2017-11-10T22:26:56.748Z,68.20
2017-11-10T22:29:25.796Z,67.80
2017-11-10T22:31:55.485Z,68.00
2017-11-10T22:34:24.060Z,68.10
2017-11-10T22:36:52.695Z,67.90
2017-11-10T22:39:21.470Z,68.20
2017-11-10T22:41:50.406Z,68.80
2017-11-10T22:44:19.435Z,68.20
2017-11-10T22:46:48.436Z,68.10
2017-11-10T22:49:17.486Z,68.10
2017-11-10T22:51:48.565Z,67.70
2017-11-10T22:54:18.396Z,67.60
2017-11-10T22:56:46.855Z,67.70
2017-11-10T22:59:15.559Z,67.30
2017-11-10T23:01:44.326Z,67.10
2017-11-10T23:04:14.265Z,67.90
2017-11-10T23:06:51.476Z,67.40
2017-11-10T23:09:21.798Z,67.20
2017-11-10T23:11:53.066Z,67.20
2017-11-10T23:14:21.976Z,67.60
2017-11-10T23:16:51.036Z,67.20
2017-11-10T23:19:19.675Z,67.50
2017-11-10T23:21:50.013Z,67.60
2017-11-10T23:24:18.616Z,67.90
2017-11-10T23:26:51.215Z,67.50
2017-11-10T23:29:19.870Z,67.50
2017-11-10T23:31:49.305Z,67.50
2017-11-10T23:34:18.495Z,67.40
2017-11-10T23:36:47.195Z,67.40
2017-11-10T23:39:16.410Z,67.90
2017-11-10T23:41:45.536Z,67.50
2017-11-10T23:44:16.375Z,68.80
2017-11-10T23:46:46.045Z,66.90
2017-11-10T23:49:15.125Z,67.40
2017-11-10T23:51:44.094Z,67.30
2017-11-10T23:54:13.776Z,67.30
2017-11-10T23:56:42.715Z,67.30
2017-11-10T23:59:11.896Z,67.60
